sensor_id;sensor_type;location;lat;lon;timestamp;P1;P2;P0
23240;PMS7003;11789;53.482;9.862;2022-07-22T00:01:21;27.00;27.00;18.00
23240;PMS7003;11789;53.482;9.862;2022-07-22T00:03:47;29.50;27.25;18.25
23240;PMS7003;11789;53.482;9.862;2022-07-22T00:06:12;30.75;28.50;17.25
23240;PMS7003;11789;53.482;9.862;2022-07-22T00:08:38;26.50;26.00;18.25
23240;PMS7003;11789;53.482;9.862;2022-07-22T00:11:04;29.75;26.75;14.75
23240;PMS7003;11789;53.482;9.862;2022-07-22T00:13:30;32.25;31.25;17.50
23240;PMS7003;11789;53.482;9.862;2022-07-22T00:15:55;19.00;17.25;10.00
23240;PMS7003;11789;53.482;9.862;2022-07-22T00:18:21;14.00;14.00;11.00
23240;PMS7003;11789;53.482;9.862;2022-07-22T00:20:46;10.75;10.75;7.75
23240;PMS7003;11789;53.482;9.862;2022-07-22T00:23:12;10.50;8.50;5.50
23240;PMS7003;11789;53.482;9.862;2022-07-22T00:25:37;7.25;7.25;5.00
23240;PMS7003;11789;53.482;9.862;2022-07-22T00:28:03;8.00;5.50;4.00
23240;PMS7003;11789;53.482;9.862;2022-07-22T00:30:29;6.00;5.00;4.00
23240;PMS7003;11789;53.482;9.862;2022-07-22T00:32:54;4.00;4.00;3.00
23240;PMS7003;11789;53.482;9.862;2022-07-22T00:35:19;5.00;3.00;3.00
23240;PMS7003;11789;53.482;9.862;2022-07-22T00:37:45;3.50;2.00;2.00
23240;PMS7003;11789;53.482;9.862;2022-07-22T00:40:11;2.00;2.00;1.50
23240;PMS7003;11789;53.482;9.862;2022-07-22T00:42:36;2.00;2.00;1.75
23240;PMS7003;11789;53.482;9.862;2022-07-22T00:45:02;1.00;1.00;1.00
23240;PMS7003;11789;53.482;9.862;2022-07-22T00:47:28;1.00;1.00;1.00
23240;PMS7003;11789;53.482;9.862;2022-07-22T00:49:53;1.00;1.00;1.00
23240;PMS7003;11789;53.482;9.862;2022-07-22T00:52:19;1.00;1.00;1.00
23240;PMS7003;11789;53.482;9.862;2022-07-22T00:54:44;1.00;1.00;1.00
23240;PMS7003;11789;53.482;9.862;2022-07-22T00:57:10;1.75;1.00;1.00
23240;PMS7003;11789;53.482;9.862;2022-07-22T00:59:35;1.25;1.25;1.00
23240;PMS7003;11789;53.482;9.862;2022-07-22T01:02:01;3.00;2.00;1.00
23240;PMS7003;11789;53.482;9.862;2022-07-22T01:04:27;1.00;1.00;1.00
23240;PMS7003;11789;53.482;9.862;2022-07-22T01:06:52;1.00;1.00;1.00
23240;PMS7003;11789;53.482;9.862;2022-07-22T01:09:18;1.00;1.00;1.00
23240;PMS7003;11789;53.482;9.862;2022-07-22T01:11:43;1.00;1.00;1.00
23240;PMS7003;11789;53.482;9.862;2022-07-22T01:14:09;1.00;1.00;0.25
23240;PMS7003;11789;53.482;9.862;2022-07-22T01:16:34;1.00;1.00;1.00
23240;PMS7003;11789;53.482;9.862;2022-07-22T01:19:01;1.25;1.25;1.00
23240;PMS7003;11789;53.482;9.862;2022-07-22T01:21:27;1.25;1.00;1.00
23240;PMS7003;11789;53.482;9.862;2022-07-22T01:23:52;1.00;1.00;1.00
23240;PMS7003;11789;53.482;9.862;2022-07-22T01:26:18;2.00;2.00;1.00
23240;PMS7003;11789;53.482;9.862;2022-07-22T01:28:43;1.00;1.00;1.00
23240;PMS7003;11789;53.482;9.862;2022-07-22T01:31:09;1.00;1.00;1.00
23240;PMS7003;11789;53.482;9.862;2022-07-22T01:33:35;1.00;1.00;1.00
23240;PMS7003;11789;53.482;9.862;2022-07-22T01:36:01;2.00;2.00;1.75
23240;PMS7003;11789;53.482;9.862;2022-07-22T01:38:30;3.00;3.00;3.00
23240;PMS7003;11789;53.482;9.862;2022-07-22T01:40:55;2.00;2.00;1.00
23240;PMS7003;11789;53.482;9.862;2022-07-22T01:43:21;3.50;3.50;3.00
23240;PMS7003;11789;53.482;9.862;2022-07-22T01:45:48;5.00;3.50;2.00
23240;PMS7003;11789;53.482;9.862;2022-07-22T01:48:15;5.75;2.75;2.00
23240;PMS7003;11789;53.482;9.862;2022-07-22T01:50:41;6.00;4.75;3.00
23240;PMS7003;11789;53.482;9.862;2022-07-22T01:53:07;2.50;2.50;2.25
23240;PMS7003;11789;53.482;9.862;2022-07-22T01:55:33;3.25;3.25;3.00
23240;PMS7003;11789;53.482;9.862;2022-07-22T01:57:58;4.00;4.00;3.75
23240;PMS7003;11789;53.482;9.862;2022-07-22T02:00:24;5.25;4.00;3.00
23240;PMS7003;11789;53.482;9.862;2022-07-22T02:02:50;3.50;3.50;2.00
23240;PMS7003;11789;53.482;9.862;2022-07-22T02:05:15;3.75;3.75;3.00
23240;PMS7003;11789;53.482;9.862;2022-07-22T02:07:41;4.75;4.00;3.00
23240;PMS7003;11789;53.482;9.862;2022-07-22T02:10:07;5.00;5.00;3.00
23240;PMS7003;11789;53.482;9.862;2022-07-22T02:12:33;3.00;3.00;2.50
23240;PMS7003;11789;53.482;9.862;2022-07-22T02:14:59;5.00;5.00;3.00
23240;PMS7003;11789;53.482;9.862;2022-07-22T02:17:24;3.75;3.75;2.00
23240;PMS7003;11789;53.482;9.862;2022-07-22T02:19:50;5.00;3.00;3.00
23240;PMS7003;11789;53.482;9.862;2022-07-22T02:22:15;7.50;4.00;3.00
23240;PMS7003;11789;53.482;9.862;2022-07-22T02:24:41;5.75;4.75;3.25
23240;PMS7003;11789;53.482;9.862;2022-07-22T02:27:07;3.00;3.00;2.00
23240;PMS7003;11789;53.482;9.862;2022-07-22T02:29:32;4.00;4.00;3.00
23240;PMS7003;11789;53.482;9.862;2022-07-22T02:31:58;5.00;3.75;2.00
23240;PMS7003;11789;53.482;9.862;2022-07-22T02:34:24;4.00;4.00;2.00
23240;PMS7003;11789;53.482;9.862;2022-07-22T02:36:50;3.50;3.25;3.00
23240;PMS7003;11789;53.482;9.862;2022-07-22T02:39:16;3.50;3.00;2.50
23240;PMS7003;11789;53.482;9.862;2022-07-22T02:41:43;5.00;4.25;2.00
23240;PMS7003;11789;53.482;9.862;2022-07-22T02:44:08;4.00;3.50;2.00
23240;PMS7003;11789;53.482;9.862;2022-07-22T02:46:34;2.25;2.00;2.00
23240;PMS7003;11789;53.482;9.862;2022-07-22T02:49:00;6.25;3.00;3.00
23240;PMS7003;11789;53.482;9.862;2022-07-22T02:51:26;6.75;5.00;3.00
23240;PMS7003;11789;53.482;9.862;2022-07-22T02:53:51;4.00;2.50;2.00
23240;PMS7003;11789;53.482;9.862;2022-07-22T02:56:17;3.75;2.50;2.00
23240;PMS7003;11789;53.482;9.862;2022-07-22T02:58:42;3.50;3.50;3.00
23240;PMS7003;11789;53.482;9.862;2022-07-22T03:01:08;3.00;3.00;2.50
23240;PMS7003;11789;53.482;9.862;2022-07-22T03:03:33;3.00;3.00;3.00
23240;PMS7003;11789;53.482;9.862;2022-07-22T03:05:59;4.25;3.75;2.75
23240;PMS7003;11789;53.482;9.862;2022-07-22T03:08:24;5.00;4.00;3.00
23240;PMS7003;11789;53.482;9.862;2022-07-22T03:10:50;4.00;4.00;3.00
23240;PMS7003;11789;53.482;9.862;2022-07-22T03:13:16;3.00;3.00;3.00
23240;PMS7003;11789;53.482;9.862;2022-07-22T03:15:42;3.25;2.00;2.00
23240;PMS7003;11789;53.482;9.862;2022-07-22T03:18:07;3.00;2.00;2.00
23240;PMS7003;11789;53.482;9.862;2022-07-22T03:20:33;5.50;2.00;2.00
23240;PMS7003;11789;53.482;9.862;2022-07-22T03:22:58;3.50;3.50;2.00
23240;PMS7003;11789;53.482;9.862;2022-07-22T03:25:24;3.00;3.00;2.00
23240;PMS7003;11789;53.482;9.862;2022-07-22T03:27:49;2.00;2.00;2.00
23240;PMS7003;11789;53.482;9.862;2022-07-22T03:30:15;2.00;2.00;2.00
23240;PMS7003;11789;53.482;9.862;2022-07-22T03:32:41;4.25;3.25;3.00
23240;PMS7003;11789;53.482;9.862;2022-07-22T03:35:10;3.00;2.75;1.75
23240;PMS7003;11789;53.482;9.862;2022-07-22T03:37:36;5.25;2.50;2.00
23240;PMS7003;11789;53.482;9.862;2022-07-22T03:40:02;3.00;3.00;2.00
23240;PMS7003;11789;53.482;9.862;2022-07-22T03:42:28;4.00;4.00;2.00
23240;PMS7003;11789;53.482;9.862;2022-07-22T03:44:53;5.50;3.25;3.00
23240;PMS7003;11789;53.482;9.862;2022-07-22T03:47:19;4.00;4.00;3.00
23240;PMS7003;11789;53.482;9.862;2022-07-22T03:49:47;4.50;4.50;3.50
23240;PMS7003;11789;53.482;9.862;2022-07-22T03:52:13;4.75;4.75;3.50
23240;PMS7003;11789;53.482;9.862;2022-07-22T03:54:40;4.25;3.00;2.00
23240;PMS7003;11789;53.482;9.862;2022-07-22T03:57:06;5.00;5.00;4.00
23240;PMS7003;11789;53.482;9.862;2022-07-22T03:59:31;4.75;4.00;3.00
23240;PMS7003;11789;53.482;9.862;2022-07-22T04:01:57;4.25;4.00;3.00
23240;PMS7003;11789;53.482;9.862;2022-07-22T04:04:22;4.00;4.00;2.75
23240;PMS7003;11789;53.482;9.862;2022-07-22T04:06:48;10.50;5.00;4.00
23240;PMS7003;11789;53.482;9.862;2022-07-22T04:09:16;4.25;4.25;3.00
23240;PMS7003;11789;53.482;9.862;2022-07-22T04:11:43;4.75;4.75;3.75
23240;PMS7003;11789;53.482;9.862;2022-07-22T04:14:08;4.00;4.00;3.00
23240;PMS7003;11789;53.482;9.862;2022-07-22T04:16:34;6.25;4.25;3.00
23240;PMS7003;11789;53.482;9.862;2022-07-22T04:19:00;5.75;4.00;3.00
23240;PMS7003;11789;53.482;9.862;2022-07-22T04:21:26;4.50;3.00;2.75
23240;PMS7003;11789;53.482;9.862;2022-07-22T04:23:52;6.00;3.00;3.00
23240;PMS7003;11789;53.482;9.862;2022-07-22T04:26:18;3.00;3.00;2.25
23240;PMS7003;11789;53.482;9.862;2022-07-22T04:28:43;5.00;3.75;2.50
23240;PMS7003;11789;53.482;9.862;2022-07-22T04:31:09;3.75;3.75;2.00
23240;PMS7003;11789;53.482;9.862;2022-07-22T04:33:34;6.00;3.75;3.00
23240;PMS7003;11789;53.482;9.862;2022-07-22T04:36:00;5.25;3.75;3.00
23240;PMS7003;11789;53.482;9.862;2022-07-22T04:38:25;3.75;3.50;2.50
23240;PMS7003;11789;53.482;9.862;2022-07-22T04:40:51;3.00;3.00;2.25
23240;PMS7003;11789;53.482;9.862;2022-07-22T04:43:16;3.50;3.50;3.00
23240;PMS7003;11789;53.482;9.862;2022-07-22T04:45:41;4.00;2.25;2.00
23240;PMS7003;11789;53.482;9.862;2022-07-22T04:48:07;5.25;4.00;3.00
23240;PMS7003;11789;53.482;9.862;2022-07-22T04:50:32;5.00;4.00;3.00
23240;PMS7003;11789;53.482;9.862;2022-07-22T04:53:01;3.00;3.00;2.00
23240;PMS7003;11789;53.482;9.862;2022-07-22T04:55:26;3.00;3.00;2.00
23240;PMS7003;11789;53.482;9.862;2022-07-22T04:57:52;3.00;3.00;3.00
23240;PMS7003;11789;53.482;9.862;2022-07-22T05:00:17;3.25;2.25;1.50
23240;PMS7003;11789;53.482;9.862;2022-07-22T05:02:43;2.75;2.75;2.50
23240;PMS7003;11789;53.482;9.862;2022-07-22T05:05:08;3.50;3.00;2.00
23240;PMS7003;11789;53.482;9.862;2022-07-22T05:07:33;2.25;2.00;1.00
23240;PMS7003;11789;53.482;9.862;2022-07-22T05:09:59;3.00;3.00;2.00
23240;PMS7003;11789;53.482;9.862;2022-07-22T05:12:24;2.00;2.00;2.00
23240;PMS7003;11789;53.482;9.862;2022-07-22T05:14:50;3.25;2.25;1.50
23240;PMS7003;11789;53.482;9.862;2022-07-22T05:17:15;3.75;2.00;1.00
23240;PMS7003;11789;53.482;9.862;2022-07-22T05:19:41;2.00;2.00;2.00
23240;PMS7003;11789;53.482;9.862;2022-07-22T05:22:06;4.50;4.00;3.00
23240;PMS7003;11789;53.482;9.862;2022-07-22T05:24:32;6.00;4.25;2.25
23240;PMS7003;11789;53.482;9.862;2022-07-22T05:26:57;5.00;3.00;2.00
23240;PMS7003;11789;53.482;9.862;2022-07-22T05:29:23;5.50;2.75;2.25
23240;PMS7003;11789;53.482;9.862;2022-07-22T05:31:48;4.25;4.00;3.00
23240;PMS7003;11789;53.482;9.862;2022-07-22T05:34:14;4.00;4.00;3.00
23240;PMS7003;11789;53.482;9.862;2022-07-22T05:36:39;3.25;3.25;2.50
23240;PMS7003;11789;53.482;9.862;2022-07-22T05:39:05;3.00;3.00;2.00
23240;PMS7003;11789;53.482;9.862;2022-07-22T05:41:30;4.75;3.75;3.00
23240;PMS7003;11789;53.482;9.862;2022-07-22T05:43:56;3.25;3.25;2.00
23240;PMS7003;11789;53.482;9.862;2022-07-22T05:46:21;4.00;4.00;2.00
23240;PMS7003;11789;53.482;9.862;2022-07-22T05:48:47;5.25;3.50;2.00
23240;PMS7003;11789;53.482;9.862;2022-07-22T05:51:12;3.75;3.75;3.00
23240;PMS7003;11789;53.482;9.862;2022-07-22T05:53:39;3.50;3.50;2.75
23240;PMS7003;11789;53.482;9.862;2022-07-22T05:56:05;4.00;3.00;2.50
23240;PMS7003;11789;53.482;9.862;2022-07-22T05:58:31;3.25;3.00;2.50
23240;PMS7003;11789;53.482;9.862;2022-07-22T06:00:57;4.00;4.00;3.00
23240;PMS7003;11789;53.482;9.862;2022-07-22T06:03:23;6.00;4.50;3.25
23240;PMS7003;11789;53.482;9.862;2022-07-22T06:05:49;3.25;2.25;1.50
23240;PMS7003;11789;53.482;9.862;2022-07-22T06:08:14;3.00;3.00;2.00
23240;PMS7003;11789;53.482;9.862;2022-07-22T06:10:40;4.75;4.00;3.00
23240;PMS7003;11789;53.482;9.862;2022-07-22T06:13:05;4.00;4.00;2.00
23240;PMS7003;11789;53.482;9.862;2022-07-22T06:15:31;5.00;2.50;2.50
23240;PMS7003;11789;53.482;9.862;2022-07-22T06:17:56;3.00;3.00;2.25
23240;PMS7003;11789;53.482;9.862;2022-07-22T06:20:22;7.00;4.00;3.00
23240;PMS7003;11789;53.482;9.862;2022-07-22T06:22:47;3.75;3.75;3.00
23240;PMS7003;11789;53.482;9.862;2022-07-22T06:25:13;2.75;2.75;1.50
23240;PMS7003;11789;53.482;9.862;2022-07-22T06:27:38;5.00;3.00;2.00
23240;PMS7003;11789;53.482;9.862;2022-07-22T06:30:04;3.75;3.75;3.00
23240;PMS7003;11789;53.482;9.862;2022-07-22T06:32:30;6.25;4.00;3.00
23240;PMS7003;11789;53.482;9.862;2022-07-22T06:34:55;4.00;4.00;2.25
23240;PMS7003;11789;53.482;9.862;2022-07-22T06:37:20;3.00;3.00;2.00
23240;PMS7003;11789;53.482;9.862;2022-07-22T06:39:46;2.75;2.75;2.00
23240;PMS7003;11789;53.482;9.862;2022-07-22T06:42:13;4.75;4.00;2.25
23240;PMS7003;11789;53.482;9.862;2022-07-22T06:44:39;5.25;5.25;3.00
23240;PMS7003;11789;53.482;9.862;2022-07-22T06:47:04;5.25;4.75;2.50
23240;PMS7003;11789;53.482;9.862;2022-07-22T06:49:30;3.00;3.00;2.00
23240;PMS7003;11789;53.482;9.862;2022-07-22T06:51:55;9.75;4.25;2.75
23240;PMS7003;11789;53.482;9.862;2022-07-22T06:54:21;3.75;3.75;3.25
23240;PMS7003;11789;53.482;9.862;2022-07-22T06:56:46;4.00;4.00;2.00
23240;PMS7003;11789;53.482;9.862;2022-07-22T06:59:12;5.00;2.00;1.75
23240;PMS7003;11789;53.482;9.862;2022-07-22T07:01:37;4.50;4.00;2.00
23240;PMS7003;11789;53.482;9.862;2022-07-22T07:04:02;7.25;4.50;3.25
23240;PMS7003;11789;53.482;9.862;2022-07-22T07:06:28;4.00;3.00;2.00
23240;PMS7003;11789;53.482;9.862;2022-07-22T07:08:54;6.00;3.00;3.00
23240;PMS7003;11789;53.482;9.862;2022-07-22T07:11:19;4.50;3.00;2.25
23240;PMS7003;11789;53.482;9.862;2022-07-22T07:13:45;3.75;2.50;2.25
23240;PMS7003;11789;53.482;9.862;2022-07-22T07:16:10;8.00;5.00;3.00
23240;PMS7003;11789;53.482;9.862;2022-07-22T07:18:36;2.75;2.75;2.00
23240;PMS7003;11789;53.482;9.862;2022-07-22T07:21:02;5.25;3.25;2.00
23240;PMS7003;11789;53.482;9.862;2022-07-22T07:23:29;4.00;3.75;3.00
23240;PMS7003;11789;53.482;9.862;2022-07-22T07:25:54;5.00;3.25;2.75
23240;PMS7003;11789;53.482;9.862;2022-07-22T07:28:20;3.00;3.00;2.25
23240;PMS7003;11789;53.482;9.862;2022-07-22T07:30:46;5.75;4.00;3.00
23240;PMS7003;11789;53.482;9.862;2022-07-22T07:33:11;3.00;2.25;2.00
23240;PMS7003;11789;53.482;9.862;2022-07-22T07:35:37;5.00;5.00;2.00
23240;PMS7003;11789;53.482;9.862;2022-07-22T07:38:02;6.00;3.50;3.00
23240;PMS7003;11789;53.482;9.862;2022-07-22T07:40:28;3.25;3.25;3.00
23240;PMS7003;11789;53.482;9.862;2022-07-22T07:42:54;6.00;3.50;2.00
23240;PMS7003;11789;53.482;9.862;2022-07-22T07:45:19;2.75;2.75;2.00
23240;PMS7003;11789;53.482;9.862;2022-07-22T07:47:45;5.00;5.00;3.00
23240;PMS7003;11789;53.482;9.862;2022-07-22T07:50:10;5.75;5.00;4.00
23240;PMS7003;11789;53.482;9.862;2022-07-22T07:52:39;6.00;4.00;3.00
23240;PMS7003;11789;53.482;9.862;2022-07-22T07:55:07;5.25;3.50;2.25
23240;PMS7003;11789;53.482;9.862;2022-07-22T07:57:33;3.25;2.50;2.50
23240;PMS7003;11789;53.482;9.862;2022-07-22T07:59:59;4.50;3.00;2.00
23240;PMS7003;11789;53.482;9.862;2022-07-22T08:02:25;3.00;3.00;2.00
23240;PMS7003;11789;53.482;9.862;2022-07-22T08:04:50;2.25;2.25;1.25
23240;PMS7003;11789;53.482;9.862;2022-07-22T08:07:16;5.50;3.00;2.25
23240;PMS7003;11789;53.482;9.862;2022-07-22T08:09:41;7.25;3.75;2.75
23240;PMS7003;11789;53.482;9.862;2022-07-22T08:12:06;3.75;3.75;3.00
23240;PMS7003;11789;53.482;9.862;2022-07-22T08:14:32;4.00;3.75;2.75
23240;PMS7003;11789;53.482;9.862;2022-07-22T08:16:58;2.00;2.00;2.00
23240;PMS7003;11789;53.482;9.862;2022-07-22T08:19:24;7.00;4.00;2.00
23240;PMS7003;11789;53.482;9.862;2022-07-22T08:21:49;3.50;3.50;2.50
23240;PMS7003;11789;53.482;9.862;2022-07-22T08:24:15;5.50;3.75;3.00
23240;PMS7003;11789;53.482;9.862;2022-07-22T08:26:40;5.00;3.50;3.00
23240;PMS7003;11789;53.482;9.862;2022-07-22T08:29:06;4.75;2.25;2.00
23240;PMS7003;11789;53.482;9.862;2022-07-22T08:31:34;4.00;3.75;2.00
23240;PMS7003;11789;53.482;9.862;2022-07-22T08:34:01;4.00;2.50;2.00
23240;PMS7003;11789;53.482;9.862;2022-07-22T08:36:28;4.00;2.25;2.00
23240;PMS7003;11789;53.482;9.862;2022-07-22T08:38:54;7.50;4.00;3.00
23240;PMS7003;11789;53.482;9.862;2022-07-22T08:41:21;3.00;3.00;2.00
23240;PMS7003;11789;53.482;9.862;2022-07-22T08:43:47;5.00;3.75;2.00
23240;PMS7003;11789;53.482;9.862;2022-07-22T08:46:13;3.00;1.75;1.00
23240;PMS7003;11789;53.482;9.862;2022-07-22T08:48:39;4.00;3.00;2.00
23240;PMS7003;11789;53.482;9.862;2022-07-22T08:51:05;5.00;3.75;2.00
23240;PMS7003;11789;53.482;9.862;2022-07-22T08:53:31;2.00;2.00;2.00
23240;PMS7003;11789;53.482;9.862;2022-07-22T08:55:57;2.00;2.00;2.00
23240;PMS7003;11789;53.482;9.862;2022-07-22T08:58:24;4.25;3.00;2.00
23240;PMS7003;11789;53.482;9.862;2022-07-22T09:01:10;2.50;2.50;2.00
23240;PMS7003;11789;53.482;9.862;2022-07-22T09:03:50;4.00;3.00;2.00
23240;PMS7003;11789;53.482;9.862;2022-07-22T09:06:17;4.25;3.50;3.00
23240;PMS7003;11789;53.482;9.862;2022-07-22T09:08:54;5.00;4.00;2.75
23240;PMS7003;11789;53.482;9.862;2022-07-22T09:11:20;4.50;3.00;3.00
23240;PMS7003;11789;53.482;9.862;2022-07-22T09:13:47;5.00;4.00;3.00
23240;PMS7003;11789;53.482;9.862;2022-07-22T09:16:13;4.75;4.25;3.25
23240;PMS7003;11789;53.482;9.862;2022-07-22T09:18:49;4.00;2.75;2.00
23240;PMS7003;11789;53.482;9.862;2022-07-22T09:21:17;4.00;4.00;3.00
23240;PMS7003;11789;53.482;9.862;2022-07-22T09:23:43;4.75;2.25;1.25
23240;PMS7003;11789;53.482;9.862;2022-07-22T09:26:12;4.00;3.00;2.00
23240;PMS7003;11789;53.482;9.862;2022-07-22T09:28:55;4.50;2.00;2.00
23240;PMS7003;11789;53.482;9.862;2022-07-22T09:31:29;6.00;3.00;2.00
23240;PMS7003;11789;53.482;9.862;2022-07-22T09:33:59;2.00;2.00;1.00
23240;PMS7003;11789;53.482;9.862;2022-07-22T09:36:26;3.00;2.25;2.00
23240;PMS7003;11789;53.482;9.862;2022-07-22T09:38:51;2.00;2.00;1.00
23240;PMS7003;11789;53.482;9.862;2022-07-22T09:41:17;3.75;3.00;2.00
23240;PMS7003;11789;53.482;9.862;2022-07-22T09:43:43;2.50;2.50;2.00
23240;PMS7003;11789;53.482;9.862;2022-07-22T09:46:09;2.00;2.00;2.00
23240;PMS7003;11789;53.482;9.862;2022-07-22T09:48:36;3.00;3.00;3.00
23240;PMS7003;11789;53.482;9.862;2022-07-22T09:51:02;3.50;2.00;1.50
23240;PMS7003;11789;53.482;9.862;2022-07-22T09:53:28;1.25;1.25;1.25
23240;PMS7003;11789;53.482;9.862;2022-07-22T09:56:02;2.00;2.00;1.75
23240;PMS7003;11789;53.482;9.862;2022-07-22T09:58:29;3.00;3.00;2.00
23240;PMS7003;11789;53.482;9.862;2022-07-22T10:00:57;3.00;2.00;1.00
23240;PMS7003;11789;53.482;9.862;2022-07-22T10:03:28;6.50;3.25;2.00
23240;PMS7003;11789;53.482;9.862;2022-07-22T10:05:57;2.00;2.00;1.75
23240;PMS7003;11789;53.482;9.862;2022-07-22T10:08:24;2.25;1.75;1.50
23240;PMS7003;11789;53.482;9.862;2022-07-22T10:10:51;1.25;1.25;1.00
23240;PMS7003;11789;53.482;9.862;2022-07-22T10:13:17;1.25;1.25;1.00
23240;PMS7003;11789;53.482;9.862;2022-07-22T10:15:43;0.00;0.00;0.00
23240;PMS7003;11789;53.482;9.862;2022-07-22T10:18:13;2.00;2.00;1.00
23240;PMS7003;11789;53.482;9.862;2022-07-22T10:20:41;2.75;2.00;2.00
23240;PMS7003;11789;53.482;9.862;2022-07-22T10:23:07;3.00;1.25;1.00
23240;PMS7003;11789;53.482;9.862;2022-07-22T10:25:53;3.00;3.00;2.00
23240;PMS7003;11789;53.482;9.862;2022-07-22T10:28:31;2.25;2.25;2.00
23240;PMS7003;11789;53.482;9.862;2022-07-22T10:31:16;2.25;2.25;2.00
23240;PMS7003;11789;53.482;9.862;2022-07-22T10:33:44;3.00;3.00;2.00
23240;PMS7003;11789;53.482;9.862;2022-07-22T10:36:14;1.75;1.75;1.00
23240;PMS7003;11789;53.482;9.862;2022-07-22T10:39:04;1.00;1.00;1.00
23240;PMS7003;11789;53.482;9.862;2022-07-22T10:41:32;3.00;2.50;2.00
23240;PMS7003;11789;53.482;9.862;2022-07-22T10:43:59;2.00;2.00;2.00
23240;PMS7003;11789;53.482;9.862;2022-07-22T10:46:47;4.00;2.25;2.00
23240;PMS7003;11789;53.482;9.862;2022-07-22T10:49:15;2.00;2.00;2.00
23240;PMS7003;11789;53.482;9.862;2022-07-22T10:57:39;2.00;2.00;2.00
23240;PMS7003;11789;53.482;9.862;2022-07-22T11:00:05;1.50;1.50;1.00
23240;PMS7003;11789;53.482;9.862;2022-07-22T11:02:31;2.75;2.75;2.00
23240;PMS7003;11789;53.482;9.862;2022-07-22T11:04:58;2.00;2.00;2.00
23240;PMS7003;11789;53.482;9.862;2022-07-22T11:07:24;2.50;2.50;2.00
23240;PMS7003;11789;53.482;9.862;2022-07-22T11:09:49;3.50;2.00;2.00
23240;PMS7003;11789;53.482;9.862;2022-07-22T11:12:15;3.50;2.00;2.00
23240;PMS7003;11789;53.482;9.862;2022-07-22T11:14:40;2.50;2.50;2.00
23240;PMS7003;11789;53.482;9.862;2022-07-22T11:17:07;4.00;2.00;2.00
23240;PMS7003;11789;53.482;9.862;2022-07-22T11:19:34;4.25;2.00;1.25
23240;PMS7003;11789;53.482;9.862;2022-07-22T11:24:32;3.00;1.00;1.00
23240;PMS7003;11789;53.482;9.862;2022-07-22T11:26:58;2.00;0.00;0.00
23240;PMS7003;11789;53.482;9.862;2022-07-22T11:32:02;2.00;2.00;1.00
23240;PMS7003;11789;53.482;9.862;2022-07-22T11:34:30;2.00;2.00;2.00
23240;PMS7003;11789;53.482;9.862;2022-07-22T11:36:56;2.00;2.00;2.00
23240;PMS7003;11789;53.482;9.862;2022-07-22T11:39:23;1.75;1.00;1.00
23240;PMS7003;11789;53.482;9.862;2022-07-22T11:41:51;2.00;2.00;1.25
23240;PMS7003;11789;53.482;9.862;2022-07-22T11:44:21;2.00;2.00;1.75
23240;PMS7003;11789;53.482;9.862;2022-07-22T11:46:51;2.50;1.25;1.00
23240;PMS7003;11789;53.482;9.862;2022-07-22T11:49:18;2.75;2.75;2.00
23240;PMS7003;11789;53.482;9.862;2022-07-22T11:51:45;2.00;2.00;2.00
23240;PMS7003;11789;53.482;9.862;2022-07-22T11:54:11;3.00;3.00;2.00
23240;PMS7003;11789;53.482;9.862;2022-07-22T11:56:36;2.00;2.00;1.25
23240;PMS7003;11789;53.482;9.862;2022-07-22T11:59:03;4.00;3.25;3.00
23240;PMS7003;11789;53.482;9.862;2022-07-22T12:01:33;5.25;2.50;2.00
23240;PMS7003;11789;53.482;9.862;2022-07-22T12:04:02;4.00;3.00;2.00
23240;PMS7003;11789;53.482;9.862;2022-07-22T12:06:36;2.00;2.00;2.00
23240;PMS7003;11789;53.482;9.862;2022-07-22T12:09:07;2.25;2.00;1.25
23240;PMS7003;11789;53.482;9.862;2022-07-22T12:11:39;4.25;3.00;2.00
23240;PMS7003;11789;53.482;9.862;2022-07-22T12:14:09;2.00;2.00;2.00
23240;PMS7003;11789;53.482;9.862;2022-07-22T12:19:32;3.00;3.00;2.25
23240;PMS7003;11789;53.482;9.862;2022-07-22T12:22:04;5.75;2.25;1.50
23240;PMS7003;11789;53.482;9.862;2022-07-22T12:24:41;2.00;2.00;2.00
23240;PMS7003;11789;53.482;9.862;2022-07-22T12:27:15;3.00;3.00;2.25
23240;PMS7003;11789;53.482;9.862;2022-07-22T12:29:43;2.00;2.00;2.00
23240;PMS7003;11789;53.482;9.862;2022-07-22T12:34:56;4.00;2.25;2.00
23240;PMS7003;11789;53.482;9.862;2022-07-22T12:37:24;3.75;2.00;2.00
23240;PMS7003;11789;53.482;9.862;2022-07-22T12:40:02;2.00;2.00;2.00
23240;PMS7003;11789;53.482;9.862;2022-07-22T12:42:30;3.00;3.00;2.00
23240;PMS7003;11789;53.482;9.862;2022-07-22T12:45:05;4.00;2.00;2.00
23240;PMS7003;11789;53.482;9.862;2022-07-22T12:52:54;2.00;2.00;2.00
23240;PMS7003;11789;53.482;9.862;2022-07-22T12:55:19;3.00;3.00;2.00
23240;PMS7003;11789;53.482;9.862;2022-07-22T12:57:45;3.00;3.00;2.00
23240;PMS7003;11789;53.482;9.862;2022-07-22T13:00:10;4.75;2.00;2.00
23240;PMS7003;11789;53.482;9.862;2022-07-22T13:02:41;7.25;3.00;2.50
23240;PMS7003;11789;53.482;9.862;2022-07-22T13:05:07;8.50;2.50;2.00
23240;PMS7003;11789;53.482;9.862;2022-07-22T13:07:32;3.75;3.75;3.00
23240;PMS7003;11789;53.482;9.862;2022-07-22T13:09:58;4.00;2.00;2.00
23240;PMS7003;11789;53.482;9.862;2022-07-22T13:12:23;3.00;3.00;2.00
23240;PMS7003;11789;53.482;9.862;2022-07-22T13:14:48;5.00;3.25;2.25
23240;PMS7003;11789;53.482;9.862;2022-07-22T13:17:14;2.25;2.25;2.00
23240;PMS7003;11789;53.482;9.862;2022-07-22T13:19:40;2.00;2.00;2.00
23240;PMS7003;11789;53.482;9.862;2022-07-22T13:22:05;2.00;2.00;2.00
23240;PMS7003;11789;53.482;9.862;2022-07-22T13:24:31;3.00;3.00;2.25
23240;PMS7003;11789;53.482;9.862;2022-07-22T13:26:56;4.25;3.00;2.00
23240;PMS7003;11789;53.482;9.862;2022-07-22T13:29:22;2.50;2.50;2.00
23240;PMS7003;11789;53.482;9.862;2022-07-22T13:31:47;3.25;2.25;2.00
23240;PMS7003;11789;53.482;9.862;2022-07-22T13:34:14;3.25;1.50;1.25
23240;PMS7003;11789;53.482;9.862;2022-07-22T13:36:40;4.00;3.00;2.00
23240;PMS7003;11789;53.482;9.862;2022-07-22T13:39:05;3.75;3.00;2.00
23240;PMS7003;11789;53.482;9.862;2022-07-22T13:41:31;5.00;2.50;2.00
23240;PMS7003;11789;53.482;9.862;2022-07-22T13:43:56;2.00;2.00;2.00
23240;PMS7003;11789;53.482;9.862;2022-07-22T13:46:21;4.67;2.00;1.00
23240;PMS7003;11789;53.482;9.862;2022-07-22T13:48:47;4.00;3.00;2.00
23240;PMS7003;11789;53.482;9.862;2022-07-22T13:51:12;4.25;2.00;1.25
23240;PMS7003;11789;53.482;9.862;2022-07-22T13:53:39;1.00;1.00;1.00
23240;PMS7003;11789;53.482;9.862;2022-07-22T13:56:05;2.00;2.00;1.00
23240;PMS7003;11789;53.482;9.862;2022-07-22T13:58:32;3.00;3.00;3.00
23240;PMS7003;11789;53.482;9.862;2022-07-22T14:00:58;3.00;3.00;3.00
23240;PMS7003;11789;53.482;9.862;2022-07-22T14:03:24;2.00;2.00;2.00
23240;PMS7003;11789;53.482;9.862;2022-07-22T14:05:49;2.50;2.50;2.00
23240;PMS7003;11789;53.482;9.862;2022-07-22T14:08:15;3.50;3.00;2.75
23240;PMS7003;11789;53.482;9.862;2022-07-22T14:10:40;2.50;2.25;2.25
23240;PMS7003;11789;53.482;9.862;2022-07-22T14:13:06;2.00;2.00;2.00
23240;PMS7003;11789;53.482;9.862;2022-07-22T14:15:32;3.00;3.00;3.00
23240;PMS7003;11789;53.482;9.862;2022-07-22T14:17:57;5.00;4.00;3.00
23240;PMS7003;11789;53.482;9.862;2022-07-22T14:20:23;6.00;3.00;3.00
23240;PMS7003;11789;53.482;9.862;2022-07-22T14:22:48;4.75;3.50;3.00
23240;PMS7003;11789;53.482;9.862;2022-07-22T14:25:14;4.00;4.00;3.00
23240;PMS7003;11789;53.482;9.862;2022-07-22T14:27:39;5.00;3.75;3.00
23240;PMS7003;11789;53.482;9.862;2022-07-22T14:30:05;4.00;4.00;3.00
23240;PMS7003;11789;53.482;9.862;2022-07-22T14:32:30;4.00;4.00;3.25
23240;PMS7003;11789;53.482;9.862;2022-07-22T14:34:56;5.50;5.00;4.00
23240;PMS7003;11789;53.482;9.862;2022-07-22T14:37:21;7.50;5.00;4.25
23240;PMS7003;11789;53.482;9.862;2022-07-22T14:39:47;4.00;4.00;4.00